KBPI

Miley Memorial Field Airport

Big Piney, Wyoming, USA
METAR KBPI 191853Z AUTO VRB03KT 10SM CLR 13/M04 A3045 RMK AO2 SLP269 T01281044
Observed Flight Rules
Oct-19 @ 18:53 UTC (59 minutes ago) Visual Flight Rules
Wind Visibility Clouds
Variable at 3 knots 10 miles
  • Clear skies
Temperatures Readings
Current 13°C / 55°F
Dewpoint -4°C / 25°F
Humidity 31%
Altimeter 30.45" Hg
Pressure 1026.9 hPa
Elevation 2117
METAR KBPI 191853Z AUTO VRB03KT 10SM CLR 13/M04 A3045 RMK AO2 SLP269 T01281044
Observed Flight Rules
Oct-19 @ 18:53 UTC
(59 minutes ago)
VFR
Wind Visibility
Variable at 3 knots 10 miles
Clouds
  • Clear skies
Temperature Dewpoint
13°C / 55°F -4°C / 25°F
Humidity Altimeter Pressure
31% 30.45" Hg 1026.9 hPa